createdAt,value
2022-07-29T00:02:13.634Z,9.41
2022-07-29T00:04:40.066Z,9.39
2022-07-29T00:07:06.452Z,9.38
2022-07-29T00:09:32.927Z,9.35
2022-07-29T00:12:08.307Z,9.32
2022-07-29T00:14:36.220Z,9.28
2022-07-29T00:17:02.511Z,9.22
2022-07-29T00:19:28.867Z,9.15
2022-07-29T00:21:55.244Z,9.14
2022-07-29T00:24:21.547Z,9.12
2022-07-29T00:26:47.917Z,9.12
2022-07-29T00:32:01.434Z,9.05
2022-07-29T00:34:46.572Z,9.02
2022-07-29T00:37:12.891Z,9.02
2022-07-29T00:39:39.167Z,9.01
2022-07-29T00:42:05.730Z,9.00
2022-07-29T00:44:36.698Z,8.95
2022-07-29T00:47:03.188Z,8.89
2022-07-29T00:49:29.566Z,8.86
2022-07-29T00:51:55.895Z,8.85
2022-07-29T00:54:22.514Z,8.87
2022-07-29T00:56:48.834Z,8.86
2022-07-29T00:59:15.156Z,8.83
2022-07-29T01:01:41.526Z,8.81
2022-07-29T01:04:08.022Z,8.79
2022-07-29T01:06:35.114Z,8.77
2022-07-29T01:09:01.996Z,8.77
2022-07-29T01:11:28.344Z,8.74
2022-07-29T01:13:54.702Z,8.65
2022-07-29T01:16:29.523Z,8.62
2022-07-29T01:19:01.448Z,8.60
2022-07-29T01:21:30.795Z,8.56
2022-07-29T01:24:12.882Z,8.53
2022-07-29T01:26:39.391Z,8.48
2022-07-29T01:29:08.368Z,8.48
2022-07-29T01:31:40.290Z,8.44
2022-07-29T01:34:36.156Z,8.43
2022-07-29T01:37:09.469Z,8.44
2022-07-29T01:39:37.281Z,8.42
2022-07-29T01:42:13.656Z,8.37
2022-07-29T01:45:12.510Z,8.34
2022-07-29T01:47:44.606Z,8.31
2022-07-29T01:50:12.891Z,8.31
2022-07-29T01:52:43.358Z,8.28
2022-07-29T01:55:14.785Z,8.27
2022-07-29T01:57:43.183Z,8.29
2022-07-29T02:00:10.190Z,8.28
2022-07-29T02:02:38.778Z,8.28
2022-07-29T02:05:06.894Z,8.31
2022-07-29T02:07:33.890Z,8.27
2022-07-29T02:10:01.442Z,8.26
2022-07-29T02:12:29.367Z,8.24
2022-07-29T02:14:58.483Z,8.22
2022-07-29T02:17:27.158Z,8.17
2022-07-29T02:19:56.739Z,8.13
2022-07-29T02:22:24.340Z,8.08
2022-07-29T02:24:52.345Z,8.04
2022-07-29T02:27:19.892Z,8.01
2022-07-29T02:29:47.428Z,8.00
2022-07-29T02:32:14.854Z,7.98
2022-07-29T02:34:42.248Z,7.97
2022-07-29T02:37:10.345Z,7.95
2022-07-29T02:39:37.682Z,7.94
2022-07-29T02:42:06.296Z,7.90
2022-07-29T02:44:35.266Z,7.89
2022-07-29T02:47:23.063Z,7.86
2022-07-29T02:50:05.195Z,7.86
2022-07-29T02:52:38.774Z,7.85
2022-07-29T02:55:11.724Z,7.86
2022-07-29T02:57:54.903Z,7.86
2022-07-29T03:00:24.681Z,7.87
2022-07-29T03:02:53.311Z,7.88
2022-07-29T03:05:20.934Z,7.88
2022-07-29T03:07:49.232Z,7.90
2022-07-29T03:10:15.765Z,7.89
2022-07-29T03:12:42.616Z,7.90
2022-07-29T03:15:09.744Z,7.88
2022-07-29T03:17:36.513Z,7.88
2022-07-29T03:20:03.554Z,7.89
2022-07-29T03:22:30.114Z,7.93
2022-07-29T03:24:56.431Z,7.97
2022-07-29T03:27:22.814Z,8.00
2022-07-29T03:29:50.017Z,8.03
2022-07-29T03:32:17.221Z,8.07
2022-07-29T03:34:50.267Z,8.12
2022-07-29T03:37:16.625Z,8.16
2022-07-29T03:39:43.840Z,8.19
2022-07-29T03:42:11.781Z,8.21
2022-07-29T03:44:38.548Z,8.26
2022-07-29T03:47:06.579Z,8.26
2022-07-29T03:49:33.664Z,8.32
2022-07-29T03:52:00.425Z,8.35
2022-07-29T03:54:26.774Z,8.41
2022-07-29T03:56:53.622Z,8.49
2022-07-29T03:59:21.414Z,8.62
2022-07-29T04:01:48.758Z,8.66
2022-07-29T04:04:15.404Z,8.68
2022-07-29T04:06:43.237Z,8.69
2022-07-29T04:09:10.129Z,8.74
2022-07-29T04:12:01.889Z,8.77
2022-07-29T04:14:23.758Z,8.79
2022-07-29T04:16:50.053Z,8.87
2022-07-29T04:19:16.335Z,8.89
2022-07-29T04:21:42.725Z,8.95
2022-07-29T04:24:09.046Z,9.00
2022-07-29T04:26:35.592Z,9.05
2022-07-29T04:29:01.912Z,9.12
2022-07-29T04:31:28.380Z,9.16
2022-07-29T04:33:54.680Z,9.22
2022-07-29T04:36:28.685Z,9.22
2022-07-29T04:38:56.377Z,9.25
2022-07-29T04:41:22.680Z,9.29
2022-07-29T04:43:49.939Z,9.33
2022-07-29T04:46:16.496Z,9.38
2022-07-29T04:48:42.970Z,9.43
2022-07-29T04:51:09.443Z,9.48
2022-07-29T04:53:35.800Z,9.56
2022-07-29T04:56:02.759Z,9.61
2022-07-29T04:58:29.070Z,9.69
2022-07-29T05:00:55.467Z,9.71
2022-07-29T05:03:21.786Z,9.76
2022-07-29T05:05:48.104Z,9.81
2022-07-29T05:08:14.742Z,9.87
2022-07-29T05:10:41.176Z,9.97
2022-07-29T05:13:08.461Z,10.06
2022-07-29T05:15:35.189Z,10.15
2022-07-29T05:18:01.930Z,10.24
2022-07-29T05:20:29.770Z,10.31
2022-07-29T05:22:56.853Z,10.40
2022-07-29T05:25:23.402Z,10.47
2022-07-29T05:28:06.985Z,10.62
2022-07-29T05:30:33.457Z,10.68
2022-07-29T05:32:59.811Z,10.77
2022-07-29T05:35:26.099Z,10.85
2022-07-29T05:37:52.427Z,10.92
2022-07-29T05:40:18.797Z,11.05
2022-07-29T05:42:45.102Z,11.16
2022-07-29T05:45:11.537Z,11.32
2022-07-29T05:47:37.970Z,11.50
2022-07-29T05:50:05.268Z,11.69
2022-07-29T05:52:31.580Z,11.89
2022-07-29T05:54:58.417Z,12.08
2022-07-29T05:57:24.977Z,12.32
2022-07-29T05:59:52.026Z,12.57
2022-07-29T06:02:18.700Z,12.82
2022-07-29T06:04:45.146Z,12.96
2022-07-29T06:07:12.315Z,13.19
2022-07-29T06:09:38.671Z,13.27
2022-07-29T06:12:05.246Z,13.39
2022-07-29T06:14:31.635Z,13.51
2022-07-29T06:16:57.928Z,13.63
2022-07-29T06:19:24.307Z,13.94
2022-07-29T06:21:50.660Z,14.05
2022-07-29T06:24:17.364Z,14.13
2022-07-29T06:26:44.302Z,14.14
2022-07-29T06:29:11.621Z,14.22
2022-07-29T06:31:38.363Z,14.37
2022-07-29T06:34:04.774Z,14.51
2022-07-29T06:36:31.274Z,14.67
2022-07-29T06:38:57.605Z,14.93
2022-07-29T06:41:24.694Z,15.05
2022-07-29T06:43:55.238Z,15.17
2022-07-29T06:46:22.652Z,15.38
2022-07-29T06:48:49.795Z,15.44
2022-07-29T06:51:17.339Z,15.58
2022-07-29T06:53:59.418Z,15.69
2022-07-29T06:56:30.163Z,15.94
2022-07-29T06:58:56.487Z,16.06
2022-07-29T07:01:22.833Z,16.43
2022-07-29T07:03:49.324Z,16.46
2022-07-29T07:06:15.746Z,16.61
2022-07-29T07:08:42.063Z,16.81
2022-07-29T07:11:08.540Z,17.11
2022-07-29T07:13:36.840Z,17.41
2022-07-29T07:16:03.648Z,17.62
2022-07-29T07:18:30.049Z,17.72
2022-07-29T07:20:56.889Z,17.80
2022-07-29T07:23:23.261Z,17.88
2022-07-29T07:25:49.620Z,18.16
2022-07-29T07:28:15.906Z,18.34
2022-07-29T07:30:42.254Z,18.44
2022-07-29T07:33:08.578Z,18.45
2022-07-29T07:35:35.119Z,18.53
2022-07-29T07:38:01.484Z,18.39
2022-07-29T07:40:27.851Z,18.47
2022-07-29T07:42:54.179Z,18.59
2022-07-29T07:45:20.569Z,18.49
2022-07-29T07:47:47.668Z,18.55
2022-07-29T07:50:18.750Z,18.92
2022-07-29T07:52:52.891Z,19.06
2022-07-29T07:55:19.652Z,19.17
2022-07-29T07:57:46.613Z,19.41
2022-07-29T08:00:13.916Z,19.22
2022-07-29T08:02:40.828Z,19.11
2022-07-29T08:05:08.447Z,19.31
2022-07-29T08:07:39.109Z,19.42
2022-07-29T08:10:05.693Z,19.53
2022-07-29T08:12:32.017Z,19.58
2022-07-29T08:14:58.398Z,19.58
2022-07-29T08:17:24.925Z,19.54
2022-07-29T08:19:51.297Z,19.58
2022-07-29T08:22:17.754Z,19.71
2022-07-29T08:24:44.182Z,19.89
2022-07-29T08:27:33.820Z,20.17
2022-07-29T08:30:00.809Z,20.17
2022-07-29T08:32:51.920Z,20.29
2022-07-29T08:35:15.606Z,20.31
2022-07-29T08:37:42.838Z,20.53
2022-07-29T08:40:09.358Z,20.48
2022-07-29T08:42:36.308Z,20.37
2022-07-29T08:45:03.699Z,20.46
2022-07-29T08:47:30.581Z,20.63
2022-07-29T08:49:56.900Z,20.63
2022-07-29T08:52:25.934Z,20.80
2022-07-29T08:54:53.063Z,20.94
2022-07-29T08:57:20.152Z,21.12
2022-07-29T08:59:47.250Z,21.44
2022-07-29T09:02:19.545Z,21.68
2022-07-29T09:04:46.180Z,21.83
2022-07-29T09:07:16.079Z,21.92
2022-07-29T09:09:43.626Z,21.90
2022-07-29T09:12:13.445Z,21.88
2022-07-29T09:14:55.996Z,21.72
2022-07-29T09:17:42.870Z,21.71
2022-07-29T09:20:10.957Z,21.68
2022-07-29T09:22:41.713Z,21.73
2022-07-29T09:25:08.487Z,21.92
2022-07-29T09:27:35.277Z,21.88
2022-07-29T09:30:06.354Z,21.98
2022-07-29T09:32:33.472Z,21.96
2022-07-29T09:35:16.309Z,22.19
2022-07-29T09:37:43.057Z,22.22
2022-07-29T09:40:13.277Z,22.57
2022-07-29T09:42:39.623Z,22.80
2022-07-29T09:45:06.201Z,22.95
2022-07-29T09:47:46.489Z,22.88
2022-07-29T09:50:12.815Z,22.80
2022-07-29T09:52:50.127Z,22.57
2022-07-29T09:55:18.083Z,22.40
2022-07-29T09:57:45.382Z,22.50
2022-07-29T10:00:13.395Z,22.63
2022-07-29T10:02:40.567Z,22.76
2022-07-29T10:05:16.688Z,22.77
2022-07-29T10:07:51.761Z,22.84
2022-07-29T10:10:27.537Z,22.94
2022-07-29T10:12:57.532Z,22.82
2022-07-29T10:15:27.747Z,23.01
2022-07-29T10:17:54.967Z,22.54
2022-07-29T10:20:22.032Z,22.53
2022-07-29T10:22:53.715Z,22.90
2022-07-29T10:25:21.176Z,23.19
2022-07-29T10:27:48.412Z,23.28
2022-07-29T10:30:15.732Z,23.07
2022-07-29T10:32:54.199Z,23.55
2022-07-29T10:35:39.649Z,23.78
2022-07-29T10:38:05.955Z,24.22
2022-07-29T10:41:00.631Z,24.33
2022-07-29T10:43:29.833Z,24.37
2022-07-29T10:45:59.241Z,24.22
2022-07-29T10:48:25.730Z,24.52
2022-07-29T10:50:56.165Z,24.45
2022-07-29T10:53:24.305Z,24.47
2022-07-29T10:55:52.435Z,24.22
2022-07-29T10:58:20.048Z,24.66
2022-07-29T11:00:49.452Z,25.41
2022-07-29T11:03:50.397Z,26.30
2022-07-29T11:06:18.041Z,27.00
2022-07-29T11:09:12.401Z,27.24
2022-07-29T11:11:44.020Z,26.73
2022-07-29T11:14:18.668Z,26.93
2022-07-29T11:19:52.271Z,27.71
2022-07-29T11:22:47.269Z,28.72
2022-07-29T11:25:17.024Z,28.34
2022-07-29T11:27:43.858Z,27.09
2022-07-29T11:30:13.108Z,26.45
2022-07-29T11:32:41.922Z,26.63
2022-07-29T11:35:17.354Z,26.95
2022-07-29T11:37:46.064Z,26.82
2022-07-29T11:40:20.193Z,26.70
2022-07-29T11:42:48.211Z,26.62
2022-07-29T11:45:43.319Z,27.16
2022-07-29T11:48:28.023Z,27.88
2022-07-29T11:50:58.316Z,27.48
2022-07-29T11:53:24.895Z,28.42
2022-07-29T11:55:55.478Z,28.28
2022-07-29T11:58:25.896Z,27.56
2022-07-29T12:00:52.723Z,26.76
2022-07-29T12:03:35.065Z,26.39
2022-07-29T12:06:02.108Z,26.02
2022-07-29T12:08:28.691Z,25.66
2022-07-29T12:10:55.023Z,25.59
2022-07-29T12:13:22.307Z,25.28
2022-07-29T12:15:55.545Z,24.73
2022-07-29T12:18:24.325Z,24.52
2022-07-29T12:20:57.598Z,24.47
2022-07-29T12:23:23.919Z,24.33
2022-07-29T12:25:55.712Z,24.20
2022-07-29T12:28:26.692Z,24.15
2022-07-29T12:30:54.037Z,24.10
2022-07-29T12:33:20.435Z,23.88
2022-07-29T12:36:03.572Z,24.02
2022-07-29T12:38:35.549Z,23.83
2022-07-29T12:41:01.977Z,23.92
2022-07-29T12:43:30.989Z,23.90
2022-07-29T12:45:58.068Z,23.97
2022-07-29T12:48:57.590Z,23.84
2022-07-29T12:51:34.539Z,23.65
2022-07-29T12:54:05.036Z,23.68
2022-07-29T12:56:46.827Z,23.59
2022-07-29T12:59:14.491Z,23.40
2022-07-29T13:01:40.979Z,23.65
2022-07-29T13:04:07.330Z,23.48
2022-07-29T13:06:34.144Z,23.51
2022-07-29T13:09:01.798Z,23.15
2022-07-29T13:11:33.519Z,23.19
2022-07-29T13:14:06.633Z,22.97
2022-07-29T13:16:33.827Z,23.01
2022-07-29T13:19:07.350Z,22.95
2022-07-29T13:21:33.922Z,22.97
2022-07-29T13:24:00.536Z,22.84
2022-07-29T13:26:26.849Z,22.63
2022-07-29T13:28:53.474Z,22.88
2022-07-29T13:31:19.811Z,23.03
2022-07-29T13:36:16.295Z,23.21
2022-07-29T13:38:42.932Z,23.40
2022-07-29T13:41:09.254Z,23.39
2022-07-29T13:43:35.605Z,23.24
2022-07-29T13:46:02.072Z,23.05
2022-07-29T13:48:28.415Z,22.81
2022-07-29T13:50:54.745Z,22.87
2022-07-29T13:53:26.760Z,22.80
2022-07-29T13:55:54.157Z,22.63
2022-07-29T13:58:20.503Z,22.69
2022-07-29T14:00:47.583Z,22.80
2022-07-29T14:03:13.911Z,22.85
2022-07-29T14:05:40.239Z,22.61
2022-07-29T14:08:06.534Z,22.67
2022-07-29T14:10:32.908Z,22.55
2022-07-29T14:12:59.282Z,22.62
2022-07-29T14:15:25.892Z,22.73
2022-07-29T14:17:52.221Z,22.83
2022-07-29T14:20:18.861Z,23.26
2022-07-29T14:22:45.765Z,23.38
2022-07-29T14:25:14.653Z,23.75
2022-07-29T14:27:41.999Z,23.69
2022-07-29T14:30:08.761Z,23.90
2022-07-29T14:32:35.221Z,24.09
2022-07-29T14:35:01.552Z,24.28
2022-07-29T14:37:27.890Z,24.16
2022-07-29T14:40:06.523Z,24.27
2022-07-29T14:42:32.896Z,24.20
2022-07-29T14:44:59.293Z,24.24
2022-07-29T14:47:25.668Z,23.92
2022-07-29T14:49:52.038Z,23.82
2022-07-29T14:52:18.463Z,23.96
2022-07-29T14:54:44.784Z,24.06
2022-07-29T14:57:11.114Z,24.51
2022-07-29T14:59:37.726Z,24.81
2022-07-29T15:02:04.529Z,24.84
2022-07-29T15:04:31.168Z,25.46
2022-07-29T15:06:57.470Z,25.76
2022-07-29T15:09:23.912Z,25.77
2022-07-29T15:11:50.339Z,25.87
2022-07-29T15:14:16.659Z,26.02
2022-07-29T15:16:43.792Z,26.11
2022-07-29T15:19:13.041Z,26.16
2022-07-29T15:21:41.647Z,26.06
2022-07-29T15:24:15.295Z,26.07
2022-07-29T15:26:43.285Z,26.13
2022-07-29T15:29:09.748Z,26.00
2022-07-29T15:31:36.105Z,25.61
2022-07-29T15:34:06.019Z,25.49
2022-07-29T15:39:19.375Z,24.55
2022-07-29T15:41:45.670Z,24.13
2022-07-29T15:44:11.997Z,23.82
2022-07-29T15:46:57.040Z,23.62
2022-07-29T15:49:23.559Z,23.55
2022-07-29T15:51:49.976Z,23.41
2022-07-29T15:54:17.548Z,23.20
2022-07-29T15:56:43.879Z,22.93
2022-07-29T15:59:10.196Z,22.97
2022-07-29T16:01:48.808Z,22.77
2022-07-29T16:04:15.526Z,22.78
2022-07-29T16:06:42.315Z,22.45
2022-07-29T16:09:08.689Z,22.42
2022-07-29T16:11:35.018Z,22.39
2022-07-29T16:14:01.669Z,22.23
2022-07-29T16:16:28.253Z,22.15
2022-07-29T16:18:54.683Z,22.24
2022-07-29T16:21:22.728Z,22.31
2022-07-29T16:23:49.208Z,22.41
2022-07-29T16:26:15.648Z,22.74
2022-07-29T16:28:42.067Z,23.04
2022-07-29T16:31:09.121Z,22.98
2022-07-29T16:33:53.545Z,23.16
2022-07-29T16:36:21.975Z,23.35
2022-07-29T16:38:48.368Z,23.43
2022-07-29T16:41:14.713Z,23.73
2022-07-29T16:43:41.066Z,23.73
2022-07-29T16:46:08.762Z,23.92
2022-07-29T16:48:38.883Z,24.14
2022-07-29T16:51:07.217Z,24.20
2022-07-29T16:53:33.721Z,24.33
2022-07-29T16:56:00.175Z,24.31
2022-07-29T16:58:26.495Z,24.44
2022-07-29T17:00:53.102Z,24.21
2022-07-29T17:03:19.492Z,23.80
2022-07-29T17:05:50.337Z,23.90
2022-07-29T17:08:19.910Z,23.69
2022-07-29T17:10:46.349Z,23.66
2022-07-29T17:13:12.674Z,23.75
2022-07-29T17:15:39.123Z,23.24
2022-07-29T17:18:12.368Z,22.74
2022-07-29T17:20:40.443Z,22.54
2022-07-29T17:23:06.804Z,22.11
2022-07-29T17:25:33.187Z,21.84
2022-07-29T17:28:01.144Z,21.70
2022-07-29T17:30:27.783Z,21.41
2022-07-29T17:32:54.779Z,21.33
2022-07-29T17:35:39.565Z,21.20
2022-07-29T17:38:05.870Z,21.22
2022-07-29T17:40:32.188Z,21.05
2022-07-29T17:42:58.587Z,20.95
2022-07-29T17:45:24.944Z,20.91
2022-07-29T17:47:51.249Z,20.84
2022-07-29T17:50:17.563Z,20.77
2022-07-29T17:52:43.893Z,20.68
2022-07-29T17:55:10.588Z,20.63
2022-07-29T17:57:37.213Z,20.58
2022-07-29T18:00:04.403Z,20.47
2022-07-29T18:02:34.976Z,20.43
2022-07-29T18:05:01.408Z,20.31
2022-07-29T18:07:27.733Z,20.22
2022-07-29T18:09:58.639Z,20.18
2022-07-29T18:12:26.712Z,20.19
2022-07-29T18:14:53.046Z,20.12
2022-07-29T18:17:19.389Z,20.08
2022-07-29T18:19:45.854Z,20.02
2022-07-29T18:22:13.190Z,19.94
2022-07-29T18:24:39.504Z,19.86
2022-07-29T18:27:05.804Z,19.82
2022-07-29T18:29:32.223Z,19.60
2022-07-29T18:32:01.709Z,19.53
2022-07-29T18:34:28.400Z,19.51
2022-07-29T18:36:54.777Z,19.43
2022-07-29T18:39:21.456Z,19.34
2022-07-29T18:41:50.206Z,19.24
2022-07-29T18:44:18.186Z,19.15
2022-07-29T18:46:44.910Z,19.05
2022-07-29T18:49:14.601Z,18.99
2022-07-29T18:51:41.058Z,18.88
2022-07-29T18:54:09.091Z,18.77
2022-07-29T18:56:35.424Z,18.68
2022-07-29T18:59:02.272Z,18.59
2022-07-29T19:01:31.786Z,18.48
2022-07-29T19:04:00.553Z,18.37
2022-07-29T19:06:26.891Z,18.30
2022-07-29T19:08:53.339Z,18.24
2022-07-29T19:11:19.656Z,18.15
2022-07-29T19:13:45.994Z,18.09
2022-07-29T19:16:13.989Z,18.00
2022-07-29T19:18:40.766Z,17.92
2022-07-29T19:21:07.326Z,17.81
2022-07-29T19:24:00.684Z,17.75
2022-07-29T19:26:22.976Z,17.66
2022-07-29T19:28:52.659Z,17.59
2022-07-29T19:31:19.036Z,17.51
2022-07-29T19:33:45.426Z,17.44
2022-07-29T19:36:11.743Z,17.36
2022-07-29T19:38:39.430Z,17.31
2022-07-29T19:41:06.310Z,17.26
2022-07-29T19:43:52.207Z,17.23
2022-07-29T19:46:19.709Z,17.19
2022-07-29T19:48:46.178Z,17.13
2022-07-29T19:51:12.516Z,17.08
2022-07-29T19:53:38.941Z,17.02
2022-07-29T19:56:05.324Z,16.99
2022-07-29T19:58:35.555Z,16.97
2022-07-29T20:01:02.712Z,16.93
2022-07-29T20:03:37.265Z,16.89
2022-07-29T20:06:03.646Z,16.87
2022-07-29T20:08:29.957Z,16.83
2022-07-29T20:10:56.285Z,16.81
2022-07-29T20:13:22.614Z,16.80
2022-07-29T20:15:48.970Z,16.77
2022-07-29T20:18:15.968Z,16.74
2022-07-29T20:20:42.298Z,16.68
2022-07-29T20:23:08.609Z,16.65
2022-07-29T20:25:35.041Z,16.58
2022-07-29T20:28:01.343Z,16.55
2022-07-29T20:30:27.748Z,16.49
2022-07-29T20:32:55.760Z,16.45
2022-07-29T20:35:22.915Z,16.43
2022-07-29T20:37:56.156Z,16.42
2022-07-29T20:40:23.411Z,16.36
2022-07-29T20:42:49.714Z,16.31
2022-07-29T20:45:16.052Z,16.28
2022-07-29T20:47:42.453Z,16.27
2022-07-29T20:50:10.050Z,16.29
2022-07-29T20:52:36.482Z,16.31
2022-07-29T20:55:02.903Z,16.31
2022-07-29T20:57:38.645Z,16.33
2022-07-29T21:00:06.707Z,16.33
2022-07-29T21:02:33.387Z,16.34
2022-07-29T21:04:59.762Z,16.39
2022-07-29T21:07:26.099Z,16.44
2022-07-29T21:09:52.442Z,16.47
2022-07-29T21:12:19.004Z,16.52
2022-07-29T21:14:47.792Z,16.54
2022-07-29T21:17:15.321Z,16.56
2022-07-29T21:19:42.139Z,16.60
2022-07-29T21:22:08.644Z,16.61
2022-07-29T21:24:34.975Z,16.62
2022-07-29T21:27:21.610Z,16.61
2022-07-29T21:29:48.597Z,16.61
2022-07-29T21:32:27.505Z,16.61
2022-07-29T21:34:56.640Z,16.62
2022-07-29T21:37:23.040Z,16.63
2022-07-29T21:39:49.349Z,16.63
2022-07-29T21:42:15.722Z,16.63
2022-07-29T21:44:42.181Z,16.64
2022-07-29T21:47:09.566Z,16.65
2022-07-29T21:49:35.973Z,16.66
2022-07-29T21:52:04.489Z,16.67
2022-07-29T21:54:31.393Z,16.67
2022-07-29T21:57:01.661Z,16.68
2022-07-29T21:59:28.123Z,16.69
2022-07-29T22:01:54.576Z,16.70
2022-07-29T22:04:21.107Z,16.67
2022-07-29T22:06:47.590Z,16.68
2022-07-29T22:09:13.960Z,16.71
2022-07-29T22:11:40.288Z,16.70
2022-07-29T22:14:07.258Z,16.68
2022-07-29T22:16:33.660Z,16.65
2022-07-29T22:18:59.960Z,16.61
2022-07-29T22:21:26.287Z,16.60
2022-07-29T22:23:52.592Z,16.59
2022-07-29T22:26:18.947Z,16.58
2022-07-29T22:28:45.251Z,16.60
2022-07-29T22:31:12.260Z,16.60
2022-07-29T22:33:38.747Z,16.57
2022-07-29T22:36:05.165Z,16.56
2022-07-29T22:38:31.539Z,16.56
2022-07-29T22:41:00.572Z,16.53
2022-07-29T22:43:27.896Z,16.54
2022-07-29T22:45:54.257Z,16.54
2022-07-29T22:48:20.941Z,16.57
2022-07-29T22:50:47.242Z,16.58
2022-07-29T22:53:13.562Z,16.57
2022-07-29T22:55:40.009Z,16.57
2022-07-29T22:58:06.610Z,16.53
2022-07-29T23:00:32.961Z,16.54
2022-07-29T23:02:59.480Z,16.55
2022-07-29T23:05:26.152Z,16.57
2022-07-29T23:07:52.488Z,16.55
2022-07-29T23:10:18.841Z,16.55
2022-07-29T23:12:45.167Z,16.57
2022-07-29T23:15:11.743Z,16.57
2022-07-29T23:17:38.047Z,16.52
2022-07-29T23:20:05.675Z,16.51
2022-07-29T23:22:32.039Z,16.51
2022-07-29T23:24:58.377Z,16.51
2022-07-29T23:27:24.813Z,16.50
2022-07-29T23:29:51.141Z,16.49
2022-07-29T23:32:17.446Z,16.49
2022-07-29T23:34:43.777Z,16.50
2022-07-29T23:37:10.155Z,16.49
2022-07-29T23:39:36.469Z,16.49
2022-07-29T23:42:03.244Z,16.45
2022-07-29T23:44:29.564Z,16.45
2022-07-29T23:46:56.255Z,16.44
2022-07-29T23:49:22.635Z,16.41
2022-07-29T23:51:48.963Z,16.37
2022-07-29T23:54:15.292Z,16.33
2022-07-29T23:56:41.631Z,16.27
2022-07-29T23:59:07.972Z,16.21
